createdAt,value
2019-03-09T00:01:58.306Z,10.10
2019-03-09T00:04:29.581Z,15.98
2019-03-09T00:07:00.973Z,14.38
2019-03-09T00:09:32.616Z,16.17
2019-03-09T00:12:03.940Z,18.52
2019-03-09T00:14:35.162Z,18.10
2019-03-09T00:17:06.378Z,13.43
2019-03-09T00:19:37.611Z,8.83
2019-03-09T00:22:08.948Z,11.85
2019-03-09T00:24:45.071Z,10.48
2019-03-09T00:27:17.914Z,9.68
2019-03-09T00:29:57.606Z,9.20
2019-03-09T00:32:29.000Z,6.33
2019-03-09T00:35:00.297Z,15.15
2019-03-09T00:37:31.465Z,9.80
2019-03-09T00:40:02.686Z,9.28
2019-03-09T00:42:33.914Z,10.00
2019-03-09T00:45:06.209Z,11.57
2019-03-09T00:47:37.420Z,13.18
2019-03-09T00:50:10.451Z,17.70
2019-03-09T00:52:41.660Z,8.18
2019-03-09T00:55:13.870Z,9.65
2019-03-09T00:57:45.202Z,9.60
2019-03-09T01:00:18.484Z,10.15
2019-03-09T01:02:51.169Z,7.83
2019-03-09T01:05:22.790Z,14.55
2019-03-09T01:07:53.854Z,15.00
2019-03-09T01:10:25.072Z,7.33
2019-03-09T01:12:56.276Z,10.28
2019-03-09T01:15:27.469Z,10.30
2019-03-09T01:17:58.748Z,7.40
2019-03-09T01:20:31.139Z,13.28
2019-03-09T01:23:02.439Z,9.95
2019-03-09T01:25:33.535Z,15.03
2019-03-09T01:28:04.873Z,7.30
2019-03-09T01:30:36.101Z,8.15
2019-03-09T01:33:07.268Z,6.92
2019-03-09T01:35:38.593Z,11.57
2019-03-09T01:38:09.803Z,14.43
2019-03-09T01:40:41.038Z,10.78
2019-03-09T01:43:12.269Z,13.70
2019-03-09T01:45:43.472Z,9.03
2019-03-09T01:48:14.747Z,10.05
2019-03-09T01:50:46.114Z,14.95
2019-03-09T01:53:17.184Z,9.60
2019-03-09T01:55:48.479Z,10.70
2019-03-09T01:58:19.925Z,9.90
2019-03-09T02:00:51.127Z,9.85
2019-03-09T02:03:22.411Z,14.15
2019-03-09T02:05:53.570Z,9.05
2019-03-09T02:08:24.655Z,14.43
2019-03-09T02:10:55.919Z,11.28
2019-03-09T02:13:27.135Z,13.10
2019-03-09T02:15:58.736Z,9.13
2019-03-09T02:18:30.091Z,16.67
2019-03-09T02:21:01.445Z,13.45
2019-03-09T02:23:32.728Z,6.97
2019-03-09T02:26:03.924Z,11.27
2019-03-09T02:28:35.050Z,13.43
2019-03-09T02:31:06.427Z,13.53
2019-03-09T02:33:37.767Z,8.78
2019-03-09T02:36:09.128Z,12.45
2019-03-09T02:38:42.046Z,14.47
2019-03-09T02:41:13.461Z,13.18
2019-03-09T02:43:44.707Z,11.15
2019-03-09T02:46:15.905Z,8.08
2019-03-09T02:48:47.056Z,11.03
2019-03-09T02:51:18.312Z,10.68
2019-03-09T02:53:49.702Z,12.68
2019-03-09T02:56:20.953Z,10.70
2019-03-09T02:58:52.289Z,12.05
2019-03-09T03:01:25.084Z,10.93
2019-03-09T03:03:56.217Z,6.62
2019-03-09T03:06:27.511Z,15.00
2019-03-09T03:08:58.780Z,6.95
2019-03-09T03:11:29.988Z,11.15
2019-03-09T03:14:01.116Z,10.30
2019-03-09T03:16:32.347Z,12.33
2019-03-09T03:19:03.490Z,11.28
2019-03-09T03:21:34.824Z,8.90
2019-03-09T03:24:06.167Z,9.65
2019-03-09T03:26:37.309Z,11.93
2019-03-09T03:29:08.541Z,10.33
2019-03-09T03:31:39.791Z,14.30
2019-03-09T03:34:11.242Z,9.18
2019-03-09T03:36:42.318Z,9.55
2019-03-09T03:39:13.482Z,11.33
2019-03-09T03:41:44.675Z,13.17
2019-03-09T03:44:15.839Z,8.90
2019-03-09T03:46:47.063Z,10.10
2019-03-09T03:49:18.400Z,12.70
2019-03-09T03:51:50.773Z,13.95
2019-03-09T03:54:21.888Z,15.72
2019-03-09T03:56:53.038Z,12.43
2019-03-09T03:59:24.423Z,13.20
2019-03-09T04:01:55.765Z,10.30
2019-03-09T04:04:26.967Z,12.53
2019-03-09T04:06:58.129Z,15.80
2019-03-09T04:09:29.426Z,13.05
2019-03-09T04:12:00.678Z,10.40
2019-03-09T04:14:31.906Z,13.28
2019-03-09T04:17:03.139Z,6.90
2019-03-09T04:19:34.474Z,16.70
2019-03-09T04:22:05.858Z,19.02
2019-03-09T04:24:38.735Z,13.98
2019-03-09T04:27:09.995Z,10.72
2019-03-09T04:29:41.740Z,12.73
2019-03-09T04:32:13.038Z,12.85
2019-03-09T04:34:44.262Z,15.32
2019-03-09T04:37:15.417Z,11.45
2019-03-09T04:39:46.623Z,18.53
2019-03-09T04:42:17.928Z,14.33
2019-03-09T04:44:49.091Z,12.93
2019-03-09T04:47:20.220Z,14.97
2019-03-09T04:49:51.554Z,17.10
2019-03-09T04:52:22.897Z,9.08
2019-03-09T04:54:54.114Z,13.25
2019-03-09T04:57:25.739Z,14.80
2019-03-09T04:59:56.984Z,13.95
2019-03-09T05:02:28.209Z,12.73
2019-03-09T05:04:59.561Z,142.25
2019-03-09T05:07:30.929Z,17.85
2019-03-09T05:10:08.220Z,13.62
2019-03-09T05:12:39.545Z,13.53
2019-03-09T05:15:13.719Z,11.08
2019-03-09T05:17:45.030Z,15.58
2019-03-09T05:20:16.284Z,13.32
2019-03-09T05:22:47.580Z,16.95
2019-03-09T05:25:18.861Z,18.95
2019-03-09T05:27:50.083Z,20.85
2019-03-09T05:30:38.434Z,23.07
2019-03-09T05:33:09.605Z,22.70
2019-03-09T05:35:40.814Z,22.03
2019-03-09T05:38:12.019Z,19.48
2019-03-09T05:40:44.338Z,20.00
2019-03-09T05:43:15.572Z,18.52
2019-03-09T05:45:46.751Z,20.15
2019-03-09T05:48:18.000Z,28.70
2019-03-09T05:50:49.243Z,24.32
2019-03-09T05:53:20.892Z,23.57
2019-03-09T05:55:52.039Z,21.90
2019-03-09T05:58:23.374Z,20.95
2019-03-09T06:00:54.639Z,20.55
2019-03-09T06:03:25.870Z,14.47
2019-03-09T06:05:57.376Z,14.85
2019-03-09T06:10:59.662Z,22.65
2019-03-09T06:13:30.865Z,18.87
2019-03-09T06:16:02.098Z,22.65
2019-03-09T06:18:33.330Z,14.63
2019-03-09T06:21:04.578Z,16.07
2019-03-09T06:23:35.837Z,15.85
2019-03-09T06:26:07.250Z,33.48
2019-03-09T06:28:38.589Z,87.42
2019-03-09T06:31:09.983Z,30.23
2019-03-09T06:33:41.303Z,23.98
2019-03-09T06:36:21.998Z,43.63
2019-03-09T06:38:56.393Z,27.30
2019-03-09T06:41:43.052Z,40.30
2019-03-09T06:44:14.448Z,33.45
2019-03-09T06:46:45.818Z,42.98
2019-03-09T06:49:17.679Z,26.45
2019-03-09T06:51:49.023Z,25.08
2019-03-09T06:54:20.372Z,40.50
2019-03-09T06:56:51.610Z,35.48
2019-03-09T06:59:23.033Z,32.40
2019-03-09T07:01:54.293Z,22.52
2019-03-09T07:04:25.610Z,16.82
2019-03-09T07:06:57.005Z,28.98
2019-03-09T07:09:28.443Z,23.92
2019-03-09T07:11:59.770Z,25.15
2019-03-09T07:14:54.045Z,17.15
2019-03-09T07:17:25.511Z,21.33
2019-03-09T07:19:56.859Z,22.77
2019-03-09T07:22:28.206Z,21.45
2019-03-09T07:24:59.995Z,24.10
2019-03-09T07:27:31.376Z,24.00
2019-03-09T07:30:06.211Z,23.52
2019-03-09T07:32:37.630Z,22.73
2019-03-09T07:35:09.301Z,21.35
2019-03-09T07:37:40.683Z,24.80
2019-03-09T07:40:13.291Z,23.73
2019-03-09T07:42:44.644Z,18.60
2019-03-09T07:45:16.066Z,25.12
2019-03-09T07:47:47.515Z,23.45
2019-03-09T07:50:18.783Z,24.07
2019-03-09T07:52:50.243Z,21.25
2019-03-09T07:55:24.246Z,24.70
2019-03-09T07:57:59.810Z,26.33
2019-03-09T08:00:31.241Z,30.82
2019-03-09T08:03:02.657Z,20.60
2019-03-09T08:05:34.078Z,33.80
2019-03-09T08:08:05.623Z,21.10
2019-03-09T08:10:36.968Z,27.07
2019-03-09T08:13:08.176Z,23.60
2019-03-09T08:15:39.468Z,30.05
2019-03-09T08:18:10.975Z,25.92
2019-03-09T08:20:42.371Z,35.80
2019-03-09T08:23:13.818Z,63.10
2019-03-09T08:25:45.395Z,51.65
2019-03-09T08:28:16.817Z,41.02
2019-03-09T08:30:48.110Z,30.72
2019-03-09T08:33:19.578Z,28.15
2019-03-09T08:35:51.055Z,41.73
2019-03-09T08:38:22.327Z,38.20
2019-03-09T08:40:53.951Z,36.75
2019-03-09T08:43:25.454Z,31.07
2019-03-09T08:45:56.802Z,27.67
2019-03-09T08:48:29.197Z,30.77
2019-03-09T08:51:00.643Z,33.95
2019-03-09T08:53:31.983Z,60.80
2019-03-09T08:56:03.378Z,29.67
2019-03-09T08:58:34.850Z,47.05
2019-03-09T09:01:06.323Z,33.90
2019-03-09T09:03:37.794Z,36.93
2019-03-09T09:06:09.115Z,50.60
2019-03-09T09:08:40.685Z,53.75
2019-03-09T09:11:12.113Z,44.05
2019-03-09T09:13:43.517Z,41.20
2019-03-09T09:16:15.281Z,27.70
2019-03-09T09:18:46.715Z,22.82
2019-03-09T09:21:17.921Z,28.02
2019-03-09T09:23:49.182Z,34.53
2019-03-09T09:26:20.644Z,33.23
2019-03-09T09:28:51.892Z,28.75
2019-03-09T09:31:23.368Z,30.55
2019-03-09T09:33:54.628Z,35.65
2019-03-09T09:36:26.059Z,32.38
2019-03-09T09:38:57.351Z,58.45
2019-03-09T09:41:28.893Z,41.00
2019-03-09T09:44:00.241Z,31.33
2019-03-09T09:46:31.656Z,32.98
2019-03-09T09:49:03.426Z,48.45
2019-03-09T09:51:34.795Z,31.52
2019-03-09T09:54:06.229Z,36.03
2019-03-09T09:56:37.596Z,38.90
2019-03-09T09:59:09.213Z,39.35
2019-03-09T10:01:40.599Z,38.92
2019-03-09T10:04:11.977Z,34.75
2019-03-09T10:06:43.436Z,34.35
2019-03-09T10:09:15.770Z,42.00
2019-03-09T10:11:47.282Z,44.00
2019-03-09T10:14:18.816Z,41.75
2019-03-09T10:16:50.150Z,52.35
2019-03-09T10:19:21.499Z,43.05
2019-03-09T10:21:53.047Z,42.38
2019-03-09T10:24:24.640Z,40.90
2019-03-09T10:26:55.977Z,42.05
2019-03-09T10:29:27.408Z,40.83
2019-03-09T10:31:58.869Z,45.98
2019-03-09T10:34:30.299Z,54.58
2019-03-09T10:37:01.587Z,81.55
2019-03-09T10:42:05.504Z,92.97
2019-03-09T10:44:36.843Z,71.85
2019-03-09T10:47:11.344Z,65.92
2019-03-09T10:49:47.433Z,53.35
2019-03-09T10:52:18.752Z,49.15
2019-03-09T10:54:53.257Z,46.33
2019-03-09T10:57:24.593Z,55.15
2019-03-09T10:59:55.916Z,60.28
2019-03-09T11:02:27.365Z,65.67
2019-03-09T11:05:01.613Z,57.62
2019-03-09T11:07:32.931Z,58.83
2019-03-09T11:10:07.062Z,52.62
2019-03-09T11:12:38.833Z,58.70
2019-03-09T11:15:15.100Z,61.80
2019-03-09T11:17:46.748Z,68.95
2019-03-09T11:20:19.383Z,60.88
2019-03-09T11:22:50.755Z,57.65
2019-03-09T11:25:22.098Z,48.65
2019-03-09T11:27:53.587Z,61.88
2019-03-09T11:30:29.500Z,70.03
2019-03-09T11:33:00.884Z,90.65
2019-03-09T11:35:32.941Z,97.17
2019-03-09T11:38:05.325Z,105.12
2019-03-09T11:43:07.161Z,95.87
2019-03-09T11:45:39.581Z,90.60
2019-03-09T11:48:11.066Z,104.05
2019-03-09T11:50:43.162Z,96.12
2019-03-09T11:55:44.999Z,82.92
2019-03-09T11:58:16.447Z,84.60
2019-03-09T12:00:48.294Z,88.03
2019-03-09T12:03:20.458Z,77.60
2019-03-09T12:05:51.643Z,82.90
2019-03-09T12:08:24.447Z,86.92
2019-03-09T12:10:57.403Z,94.65
2019-03-09T12:13:28.837Z,95.60
2019-03-09T12:16:00.322Z,82.80
2019-03-09T12:18:31.633Z,93.00
2019-03-09T12:21:02.982Z,91.90
2019-03-09T12:23:34.401Z,85.07
2019-03-09T12:26:11.160Z,90.55
2019-03-09T12:28:42.417Z,80.40
2019-03-09T12:31:14.192Z,92.45
2019-03-09T12:33:45.492Z,88.82
2019-03-09T12:36:16.836Z,87.70
2019-03-09T12:38:48.121Z,78.92
2019-03-09T12:41:19.453Z,76.65
2019-03-09T12:43:50.818Z,69.60
2019-03-09T12:46:22.168Z,65.55
2019-03-09T12:48:53.550Z,66.42
2019-03-09T12:51:24.789Z,57.20
2019-03-09T12:53:56.150Z,59.53
2019-03-09T12:56:27.526Z,60.20
2019-03-09T12:58:58.691Z,58.52
2019-03-09T13:01:30.147Z,64.50
2019-03-09T13:04:01.539Z,60.35
2019-03-09T13:06:32.942Z,61.73
2019-03-09T13:09:04.783Z,62.50
2019-03-09T13:11:37.700Z,66.70
2019-03-09T13:14:09.151Z,65.45
2019-03-09T13:16:40.525Z,72.78
2019-03-09T13:19:11.814Z,64.37
2019-03-09T13:21:43.133Z,55.23
2019-03-09T13:24:14.568Z,60.95
2019-03-09T13:26:46.026Z,60.03
2019-03-09T13:29:17.598Z,55.63
2019-03-09T13:31:48.993Z,56.77
2019-03-09T13:34:20.321Z,54.13
2019-03-09T13:36:51.779Z,61.58
2019-03-09T13:39:23.263Z,61.02
2019-03-09T13:41:54.613Z,70.52
2019-03-09T13:44:25.940Z,68.60
2019-03-09T13:46:57.379Z,72.47
2019-03-09T13:49:28.828Z,74.90
2019-03-09T13:52:00.206Z,69.15
2019-03-09T13:54:31.568Z,77.62
2019-03-09T13:57:02.973Z,65.28
2019-03-09T13:59:34.316Z,65.65
2019-03-09T14:02:05.784Z,57.35
2019-03-09T14:04:37.114Z,58.25
2019-03-09T14:07:08.427Z,52.40
2019-03-09T14:09:39.788Z,63.40
2019-03-09T14:12:11.067Z,53.68
2019-03-09T14:14:42.520Z,58.58
2019-03-09T14:17:14.010Z,66.22
2019-03-09T14:19:45.382Z,56.92
2019-03-09T14:22:16.870Z,53.90
2019-03-09T14:24:48.197Z,49.98
2019-03-09T14:27:19.452Z,55.80
2019-03-09T14:29:50.821Z,55.50
2019-03-09T14:32:22.104Z,56.35
2019-03-09T14:34:53.506Z,48.83
2019-03-09T14:37:24.944Z,51.77
2019-03-09T14:39:56.272Z,58.65
2019-03-09T14:42:27.767Z,52.03
2019-03-09T14:44:59.121Z,52.10
2019-03-09T14:47:30.591Z,58.68
2019-03-09T14:50:01.970Z,57.53
2019-03-09T14:52:33.370Z,59.83
2019-03-09T14:55:06.347Z,56.33
2019-03-09T14:57:37.780Z,57.75
2019-03-09T15:00:23.442Z,59.23
2019-03-09T15:02:54.706Z,63.65
2019-03-09T15:05:26.069Z,69.87
2019-03-09T15:07:57.510Z,72.60
2019-03-09T15:10:28.791Z,76.95
2019-03-09T15:13:00.179Z,68.62
2019-03-09T15:15:31.527Z,76.97
2019-03-09T15:18:02.785Z,75.42
2019-03-09T15:20:34.088Z,85.03
2019-03-09T15:23:05.448Z,116.97
2019-03-09T15:25:36.769Z,123.45
2019-03-09T15:28:08.290Z,114.77
2019-03-09T15:30:39.688Z,85.05
2019-03-09T15:33:11.071Z,67.90
2019-03-09T15:35:42.421Z,83.72
2019-03-09T15:38:13.896Z,72.03
2019-03-09T15:40:45.340Z,71.33
2019-03-09T15:43:16.715Z,74.97
2019-03-09T15:45:48.131Z,78.57
2019-03-09T15:48:19.616Z,68.12
2019-03-09T15:50:50.890Z,72.75
2019-03-09T15:53:22.269Z,75.70
2019-03-09T15:58:24.691Z,78.67
2019-03-09T16:00:56.045Z,68.25
2019-03-09T16:03:27.343Z,83.07
2019-03-09T16:05:58.600Z,83.22
2019-03-09T16:08:29.882Z,84.03
2019-03-09T16:11:01.282Z,88.33
2019-03-09T16:13:32.598Z,83.45
2019-03-09T16:16:03.940Z,89.77
2019-03-09T16:18:35.320Z,96.80
2019-03-09T16:21:06.681Z,107.70
2019-03-09T16:23:37.943Z,107.75
2019-03-09T16:26:09.204Z,102.80
2019-03-09T16:28:40.646Z,105.40
2019-03-09T16:31:12.107Z,106.00
2019-03-09T16:33:43.452Z,108.63
2019-03-09T16:36:14.936Z,113.03
2019-03-09T16:38:47.244Z,114.28
2019-03-09T16:41:19.736Z,110.75
2019-03-09T16:43:51.170Z,117.45
2019-03-09T16:46:22.573Z,118.15
2019-03-09T16:48:54.014Z,116.55
2019-03-09T16:51:25.426Z,130.90
2019-03-09T16:53:56.807Z,114.52
2019-03-09T16:56:28.229Z,124.12
2019-03-09T16:58:59.699Z,134.95
2019-03-09T17:01:31.057Z,181.55
2019-03-09T17:04:02.466Z,195.32
2019-03-09T17:06:33.866Z,197.98
2019-03-09T17:09:05.980Z,183.87
2019-03-09T17:11:38.881Z,174.60
2019-03-09T17:14:10.350Z,179.45
2019-03-09T17:16:41.627Z,178.35
2019-03-09T17:19:13.530Z,189.25
2019-03-09T17:21:46.129Z,206.63
2019-03-09T17:24:17.508Z,226.75
2019-03-09T17:26:48.832Z,202.68
2019-03-09T17:29:20.263Z,185.78
2019-03-09T17:31:51.624Z,191.43
2019-03-09T17:34:22.880Z,184.07
2019-03-09T17:36:54.247Z,185.18
2019-03-09T17:39:25.607Z,214.30
2019-03-09T17:41:56.751Z,137.57
2019-03-09T17:44:28.235Z,186.15
2019-03-09T17:46:59.708Z,220.90
2019-03-09T17:49:30.927Z,182.93
2019-03-09T17:52:02.382Z,194.62
2019-03-09T17:54:33.590Z,188.20
2019-03-09T17:57:06.662Z,190.25
2019-03-09T17:59:38.239Z,172.35
2019-03-09T18:02:09.712Z,202.35
2019-03-09T18:04:41.113Z,216.23
2019-03-09T18:07:12.731Z,184.67
2019-03-09T18:09:45.764Z,207.18
2019-03-09T18:12:18.777Z,217.75
2019-03-09T18:14:51.876Z,191.88
2019-03-09T18:17:25.384Z,186.35
2019-03-09T18:19:56.727Z,193.10
2019-03-09T18:22:28.437Z,221.70
2019-03-09T18:25:02.962Z,232.83
2019-03-09T18:27:36.381Z,224.37
2019-03-09T18:30:10.428Z,195.60
2019-03-09T18:32:45.066Z,203.10
2019-03-09T18:35:16.831Z,225.80
2019-03-09T18:37:48.245Z,208.23
2019-03-09T18:40:19.641Z,210.32
2019-03-09T18:43:01.054Z,202.05
2019-03-09T18:45:32.921Z,212.35
2019-03-09T18:48:09.288Z,225.68
2019-03-09T18:50:44.695Z,222.20
2019-03-09T18:53:19.189Z,219.70
2019-03-09T18:55:58.923Z,214.00
2019-03-09T18:58:25.199Z,223.40
2019-03-09T19:00:58.475Z,221.22
2019-03-09T19:03:31.123Z,247.12
2019-03-09T19:06:04.337Z,197.10
2019-03-09T19:08:36.097Z,195.15
2019-03-09T19:11:07.661Z,197.55
2019-03-09T19:13:39.180Z,178.50
2019-03-09T19:16:10.642Z,171.60
2019-03-09T19:18:42.036Z,161.37
2019-03-09T19:21:14.428Z,175.38
2019-03-09T19:23:45.801Z,160.07
2019-03-09T19:28:49.491Z,113.22
2019-03-09T19:31:20.985Z,137.92
2019-03-09T19:33:52.336Z,141.28
2019-03-09T19:36:23.895Z,130.85
2019-03-09T19:38:55.234Z,141.18
2019-03-09T19:41:26.657Z,147.00
2019-03-09T19:43:58.106Z,146.95
2019-03-09T19:46:29.577Z,150.65
2019-03-09T19:49:02.107Z,175.18
2019-03-09T19:51:34.235Z,186.12
2019-03-09T19:54:05.900Z,210.23
2019-03-09T19:56:37.398Z,231.13
2019-03-09T19:59:10.426Z,184.48
2019-03-09T20:01:45.267Z,217.18
2019-03-09T20:04:17.357Z,233.28
2019-03-09T20:06:48.712Z,226.25
2019-03-09T20:09:22.762Z,258.55
2019-03-09T20:11:55.665Z,242.87
2019-03-09T20:14:26.986Z,245.73
2019-03-09T20:16:58.450Z,253.83
2019-03-09T20:19:29.892Z,188.03
2019-03-09T20:22:01.211Z,256.87
2019-03-09T20:24:33.821Z,294.15
2019-03-09T20:27:05.259Z,241.55
2019-03-09T20:29:36.579Z,227.93
2019-03-09T20:32:07.912Z,224.18
2019-03-09T20:34:39.634Z,216.50
2019-03-09T20:37:15.130Z,234.87
2019-03-09T20:39:46.519Z,201.42
2019-03-09T20:42:17.989Z,187.40
2019-03-09T20:44:49.384Z,214.35
2019-03-09T20:47:20.827Z,178.00
2019-03-09T20:49:52.305Z,222.90
2019-03-09T20:52:26.462Z,208.20
2019-03-09T20:54:57.810Z,196.68
2019-03-09T20:57:29.201Z,193.62
2019-03-09T21:00:00.664Z,202.45
2019-03-09T21:02:32.527Z,195.18
2019-03-09T21:05:04.885Z,195.30
2019-03-09T21:07:36.208Z,174.35
2019-03-09T21:10:10.764Z,204.40
2019-03-09T21:13:00.382Z,203.77
2019-03-09T21:15:32.910Z,202.82
2019-03-09T21:18:05.050Z,173.50
2019-03-09T21:20:36.559Z,182.27
2019-03-09T21:23:07.804Z,198.35
2019-03-09T21:25:39.240Z,173.28
2019-03-09T21:28:11.087Z,201.45
2019-03-09T21:30:42.422Z,209.70
2019-03-09T21:33:13.802Z,235.38
2019-03-09T21:35:45.240Z,276.65
2019-03-09T21:38:16.676Z,264.38
2019-03-09T21:40:48.040Z,317.68
2019-03-09T21:43:20.707Z,317.52
2019-03-09T21:45:52.126Z,284.57
2019-03-09T21:48:23.617Z,253.60
2019-03-09T21:50:54.948Z,247.07
2019-03-09T21:53:26.279Z,254.78
2019-03-09T21:55:57.753Z,261.35
2019-03-09T21:58:29.448Z,267.50
2019-03-09T22:01:01.126Z,245.27
2019-03-09T22:03:32.555Z,253.02
2019-03-09T22:06:06.277Z,251.00
2019-03-09T22:08:37.069Z,248.65
2019-03-09T22:11:09.561Z,264.88
2019-03-09T22:13:40.983Z,241.95
2019-03-09T22:16:12.432Z,225.28
2019-03-09T22:18:43.744Z,227.93
2019-03-09T22:21:15.213Z,249.12
2019-03-09T22:23:46.489Z,208.45
2019-03-09T22:26:18.024Z,237.80
2019-03-09T22:28:49.322Z,246.90
2019-03-09T22:31:21.920Z,250.03
2019-03-09T22:33:53.387Z,240.90
2019-03-09T22:36:24.704Z,265.80
2019-03-09T22:38:56.138Z,235.45
2019-03-09T22:41:27.463Z,242.55
2019-03-09T22:43:58.876Z,247.27
2019-03-09T22:46:30.137Z,284.55
2019-03-09T22:49:01.834Z,254.95
2019-03-09T22:51:33.294Z,252.05
2019-03-09T22:54:04.618Z,247.67
2019-03-09T22:56:35.967Z,289.30
2019-03-09T22:59:07.317Z,323.48
2019-03-09T23:01:38.739Z,291.42
2019-03-09T23:04:10.130Z,323.55
2019-03-09T23:06:41.542Z,292.10
2019-03-09T23:09:12.896Z,297.20
2019-03-09T23:11:44.233Z,304.68
2019-03-09T23:14:15.628Z,316.23
2019-03-09T23:16:46.926Z,292.70
2019-03-09T23:19:18.220Z,253.15
2019-03-09T23:21:49.639Z,270.93
2019-03-09T23:24:21.966Z,271.62
2019-03-09T23:26:53.451Z,283.90
2019-03-09T23:29:24.885Z,244.97
2019-03-09T23:31:56.140Z,174.20
2019-03-09T23:34:27.443Z,251.35
2019-03-09T23:36:58.663Z,254.85
2019-03-09T23:39:29.928Z,270.05
2019-03-09T23:42:01.319Z,245.00
2019-03-09T23:44:32.795Z,237.05
2019-03-09T23:47:04.119Z,273.13
2019-03-09T23:49:35.457Z,230.07
2019-03-09T23:52:06.926Z,237.12
2019-03-09T23:54:38.192Z,213.57
2019-03-09T23:57:09.607Z,177.45
2019-03-09T23:59:41.087Z,236.55
